Time;durP1;ratioP1;P1;durP2;ratioP2;P2;SDS_P1;SDS_P2;PMS_P1;PMS_P2;Temp;Humidity;BMP_temperature;BMP_pressure;BME280_temperature;BME280_humidity;BME280_pressure;Samples;Min_cycle;Max_cycle;Signal;HPM_P1;HPM_P2
2022/02/14 00:02:17;;;;;;;6.60;3.40;;;;;;;7.23;100.00;99879.31;4997923;28;20857;-72
2022/02/14 00:04:43;;;;;;;6.73;3.80;;;;;;;8.01;100.00;99993.66;5001884;28;20205;-72
2022/02/14 00:07:09;;;;;;;8.70;3.97;;;;;;;7.35;100.00;99895.56;4997230;28;20449;-73
2022/02/14 00:09:34;;;;;;;7.50;3.73;;;;;;;7.97;100.00;99987.91;4998639;28;20192;-73
2022/02/14 00:12:00;;;;;;;8.87;3.83;;;;;;;7.33;100.00;99863.75;4997743;28;20458;-72
2022/02/14 00:14:27;;;;;;;5.67;3.40;;;;;;;6.71;100.00;99779.44;4998767;28;20197;-72
2022/02/14 00:16:54;;;;;;;6.20;3.13;;;;;;;7.45;100.00;99888.00;4996943;28;20474;-72
2022/02/14 00:19:20;;;;;;;5.40;3.80;;;;;;;7.50;100.00;99896.22;4997779;28;20812;-72
2022/02/14 00:21:45;;;;;;;8.53;4.00;;;;;;;8.00;100.00;99965.31;5001328;28;20452;-72
2022/02/14 00:24:11;;;;;;;7.00;3.70;;;;;;;7.89;100.00;99964.88;4996626;28;20185;-72
2022/02/14 00:26:37;;;;;;;6.90;3.60;;;;;;;7.69;100.00;99900.78;4997547;28;20218;-73
2022/02/14 00:29:04;;;;;;;5.50;3.23;;;;;;;7.13;100.00;99809.53;5000350;28;20213;-73
2022/02/14 00:31:29;;;;;;;6.77;3.70;;;;;;;7.85;100.00;99920.94;4995885;28;20455;-74
2022/02/14 00:33:54;;;;;;;6.50;3.40;;;;;;;8.02;100.00;99958.75;4995093;28;20501;-74
2022/02/14 00:36:20;;;;;;;5.83;3.17;;;;;;;7.07;100.00;99778.34;4999578;28;20209;-72
2022/02/14 00:38:45;;;;;;;5.13;3.77;;;;;;;7.74;100.00;99892.16;4994793;28;20199;-72
2022/02/14 00:41:11;;;;;;;9.43;3.37;;;;;;;7.46;100.00;99861.13;4995684;28;20203;-72
2022/02/14 00:43:36;;;;;;;8.80;3.60;;;;;;;7.15;100.00;99776.31;4997055;28;20696;-72
2022/02/14 00:46:02;;;;;;;8.10;3.20;;;;;;;7.34;100.00;99811.22;4996265;28;20295;-73
2022/02/14 00:48:28;;;;;;;6.70;3.00;;;;;;;8.03;100.00;99916.84;4998799;28;20240;-73
2022/02/14 00:50:53;;;;;;;7.20;3.50;;;;;;;8.13;100.00;99934.09;5000195;28;20220;-72
2022/02/14 00:53:19;;;;;;;6.13;3.57;;;;;;;7.21;100.00;99774.69;4996521;28;20201;-73
2022/02/14 00:55:45;;;;;;;9.33;3.60;;;;;;;8.18;100.00;99924.63;4998808;28;20204;-73
2022/02/14 00:58:11;;;;;;;8.47;3.93;;;;;;;7.33;100.00;99790.91;4997372;28;21477;-72
2022/02/14 01:00:36;;;;;;;8.50;2.77;;;;;;;6.57;100.00;99662.19;5000715;28;21003;-72
2022/02/14 01:03:02;;;;;;;7.40;3.40;;;;;;;7.97;100.00;99885.63;4997849;28;20276;-72
2022/02/14 01:05:28;;;;;;;6.30;2.77;;;;;;;8.00;100.00;99875.34;5001009;28;20212;-72
2022/02/14 01:07:54;;;;;;;4.70;3.07;;;;;;;7.58;100.00;99791.97;4997827;28;20672;-73
2022/02/14 01:10:19;;;;;;;9.87;3.33;;;;;;;7.70;100.00;99808.19;4995012;28;20452;-72
2022/02/14 01:12:45;;;;;;;7.97;3.20;;;;;;;7.87;100.00;99832.63;4998296;28;20188;-74
2022/02/14 01:15:11;;;;;;;6.40;3.30;;;;;;;8.35;100.00;99897.28;4996029;28;20224;-73
2022/02/14 01:17:37;;;;;;;5.90;2.63;;;;;;;8.34;100.00;99892.19;4998562;28;20228;-72
2022/02/14 01:20:05;;;;;;;5.37;3.30;;;;;;;7.91;100.00;99813.31;4995003;28;20822;-73
2022/02/14 01:22:30;;;;;;;6.37;3.03;;;;;;;8.35;100.00;99891.94;4997775;28;20542;-73
2022/02/14 01:24:56;;;;;;;3.10;2.57;;;;;;;8.43;100.00;99880.28;4997136;28;20544;-72
2022/02/14 01:27:23;;;;;;;8.60;3.23;;;;;;;8.50;100.00;99885.59;4996724;28;20213;-72
2022/02/14 01:29:49;;;;;;;3.73;3.10;;;;;;;8.35;100.00;99885.78;5002470;28;20251;-73
2022/02/14 01:32:19;;;;;;;7.67;2.97;;;;;;;7.63;100.00;99749.44;4993423;28;20941;-72
2022/02/14 01:34:46;;;;;;;4.80;2.97;;;;;;;7.66;100.00;99750.88;4993575;28;20665;-72
2022/02/14 01:37:11;;;;;;;5.20;2.80;;;;;;;8.49;100.00;99875.94;4997073;28;20502;-73
2022/02/14 01:39:36;;;;;;;6.33;3.03;;;;;;;7.33;100.00;99701.03;4994827;28;20448;-72
2022/02/14 01:42:02;;;;;;;6.47;3.00;;;;;;;8.23;100.00;99808.13;4995160;28;20197;-72
2022/02/14 01:44:34;;;;;;;5.47;3.20;;;;;;;7.97;100.00;99795.63;4996773;28;20440;-72
2022/02/14 01:46:59;;;;;;;6.83;3.37;;;;;;;8.09;100.00;99771.78;4995874;28;20280;-72
2022/02/14 01:49:25;;;;;;;8.37;2.83;;;;;;;8.19;100.00;99788.22;4995629;28;20526;-73
2022/02/14 01:51:50;;;;;;;4.47;2.87;;;;;;;7.98;100.00;99732.38;4997705;28;20798;-72
2022/02/14 01:54:16;;;;;;;4.90;2.80;;;;;;;8.55;100.00;99811.78;4998168;28;20193;-73
2022/02/14 01:56:42;;;;;;;6.33;3.50;;;;;;;8.62;100.00;99821.63;5002877;23;20228;-71
2022/02/14 01:59:08;;;;;;;7.10;2.43;;;;;;;8.47;100.00;99790.63;4976996;28;20860;-71
2022/02/14 02:01:33;;;;;;;5.60;2.50;;;;;;;8.59;100.00;99809.50;4999536;28;20196;-71
2022/02/14 02:03:59;;;;;;;5.13;2.83;;;;;;;8.63;100.00;99812.59;4998683;28;20213;-71
2022/02/14 02:06:25;;;;;;;5.40;2.87;;;;;;;7.97;100.00;99717.38;4996267;28;20241;-71
2022/02/14 02:08:50;;;;;;;6.43;2.90;;;;;;;7.75;100.00;99663.41;4979462;28;20235;-71
2022/02/14 02:14:00;;;;;;;5.77;2.60;;;;;;;8.52;100.00;99784.66;4999040;28;20288;-70
2022/02/14 02:16:26;;;;;;;6.97;3.10;;;;;;;8.19;100.00;99742.81;4995287;28;20945;-71
2022/02/14 02:18:52;;;;;;;9.53;3.13;;;;;;;8.52;100.00;99790.81;4999390;28;20177;-70
2022/02/14 02:21:18;;;;;;;5.50;2.77;;;;;;;8.47;100.00;99781.78;5006030;28;20979;-70
2022/02/14 02:23:43;;;;;;;5.43;3.50;;;;;;;8.28;100.00;99752.22;5000710;28;20848;-71
2022/02/14 02:26:09;;;;;;;7.50;2.87;;;;;;;8.00;100.00;99690.25;5004214;28;20241;-71
2022/02/14 02:28:35;;;;;;;6.30;3.13;;;;;;;8.13;100.00;99715.09;5002834;28;20263;-70
2022/02/14 02:31:05;;;;;;;5.00;2.60;;;;;;;8.03;100.00;99689.84;5004961;28;20448;-71
2022/02/14 02:33:31;;;;;;;8.07;2.33;;;;;;;8.47;100.00;99784.47;5001826;28;20189;-70
2022/02/14 02:35:58;;;;;;;8.80;3.67;;;;;;;8.05;100.00;99696.63;4983001;28;20459;-70
2022/02/14 02:38:25;;;;;;;6.67;3.10;;;;;;;8.64;100.00;99777.59;5002684;28;20490;-70
2022/02/14 02:40:50;;;;;;;5.57;2.70;;;;;;;8.48;100.00;99744.19;5003468;28;20455;-70
2022/02/14 02:43:17;;;;;;;6.40;3.07;;;;;;;8.56;100.00;99751.97;4980389;28;20455;-70
2022/02/14 02:45:43;;;;;;;11.60;3.20;;;;;;;8.66;100.00;99762.19;4985190;28;20207;-72
2022/02/14 02:48:09;;;;;;;5.73;2.97;;;;;;;8.18;100.00;99676.22;4999197;28;20578;-72
2022/02/14 02:50:34;;;;;;;8.20;3.57;;;;;;;8.19;100.00;99673.34;5002955;28;20964;-70
2022/02/14 02:53:00;;;;;;;4.20;2.70;;;;;;;8.68;100.00;99737.91;4992465;28;20277;-72
2022/02/14 02:55:25;;;;;;;9.83;3.00;;;;;;;8.57;100.00;99710.00;4998022;28;20471;-71
2022/02/14 02:57:51;;;;;;;5.90;3.10;;;;;;;8.34;100.00;99673.91;5001116;28;20189;-71
2022/02/14 03:00:17;;;;;;;6.70;2.63;;;;;;;8.06;100.00;99652.84;5000060;28;20196;-71
2022/02/14 03:02:42;;;;;;;5.40;2.77;;;;;;;8.02;100.00;99608.09;4999808;28;20271;-70
2022/02/14 03:05:08;;;;;;;6.03;3.57;;;;;;;8.89;100.00;99740.28;4999830;28;20237;-71
2022/02/14 03:07:33;;;;;;;5.10;2.70;;;;;;;8.56;100.00;99689.63;5001259;28;20209;-71
2022/02/14 03:09:59;;;;;;;10.70;3.30;;;;;;;8.10;100.00;99614.00;4998944;28;20272;-71
2022/02/14 03:12:24;;;;;;;5.40;2.77;;;;;;;8.18;100.00;99622.81;4998265;28;20292;-72
2022/02/14 03:14:49;;;;;;;5.87;2.60;;;;;;;8.82;100.00;99704.72;5002342;28;20192;-71
2022/02/14 03:17:16;;;;;;;7.17;3.17;;;;;;;9.00;100.00;99723.53;4998480;28;20189;-71
2022/02/14 03:19:43;;;;;;;4.90;3.00;;;;;;;8.68;100.00;99671.06;4977225;28;20181;-72
2022/02/14 03:22:09;;;;;;;4.53;2.20;;;;;;;8.68;100.00;99687.94;5000253;28;20467;-72
2022/02/14 03:24:35;;;;;;;4.83;2.70;;;;;;;8.44;100.00;99649.41;5000151;28;20543;-72
2022/02/14 03:27:01;;;;;;;6.30;3.33;;;;;;;8.99;100.00;99719.22;5000309;28;20199;-72
2022/02/14 03:29:27;;;;;;;6.70;2.63;;;;;;;9.03;100.00;99707.06;5001396;28;20439;-72
2022/02/14 03:31:53;;;;;;;6.70;2.40;;;;;;;9.01;100.00;99693.06;4997654;28;20444;-71
2022/02/14 03:34:19;;;;;;;5.67;3.10;;;;;;;9.05;100.00;99701.47;5000286;28;20828;-72
2022/02/14 03:36:44;;;;;;;8.23;2.53;;;;;;;8.96;100.00;99684.06;5000090;28;20499;-71
2022/02/14 03:39:12;;;;;;;3.53;2.20;;;;;;;8.29;100.00;99564.16;4997641;28;20937;-71
2022/02/14 03:41:37;;;;;;;7.53;2.90;;;;;;;8.23;100.00;99567.72;4998955;28;20185;-71
2022/02/14 03:44:03;;;;;;;7.40;2.80;;;;;;;8.25;100.00;99576.34;4999176;28;20470;-72
2022/02/14 03:46:28;;;;;;;6.10;2.60;;;;;;;8.88;100.00;99668.28;4997909;28;20217;-72
2022/02/14 03:48:54;;;;;;;10.00;3.40;;;;;;;8.84;100.00;99649.16;4999612;28;20867;-72
2022/02/14 03:51:20;;;;;;;9.23;2.53;;;;;;;8.28;100.00;99557.22;4997775;28;20219;-72
2022/02/14 03:53:46;;;;;;;6.10;3.00;;;;;;;8.46;100.00;99603.78;4998137;28;20517;-72
2022/02/14 03:56:11;;;;;;;6.10;2.77;;;;;;;8.17;100.00;99541.84;4994022;28;20331;-71
2022/02/14 03:58:37;;;;;;;3.33;2.53;;;;;;;8.88;100.00;99662.94;5000330;28;20181;-71
2022/02/14 04:01:02;;;;;;;7.20;2.43;;;;;;;8.09;100.00;99548.25;4996461;28;20198;-71
2022/02/14 04:03:28;;;;;;;7.57;3.23;;;;;;;8.57;100.00;99611.94;4994481;28;20288;-72
2022/02/14 04:05:54;;;;;;;5.80;3.20;;;;;;;8.62;100.00;99613.13;5000875;28;20677;-72
2022/02/14 04:08:19;;;;;;;9.30;3.23;;;;;;;8.31;100.00;99554.09;4998072;28;20284;-71
2022/02/14 04:10:45;;;;;;;7.67;2.90;;;;;;;8.31;100.00;99542.59;5001087;28;20192;-72
2022/02/14 04:13:10;;;;;;;6.90;2.80;;;;;;;8.29;100.00;99542.81;4994800;28;20855;-72
2022/02/14 04:15:36;;;;;;;5.93;2.40;;;;;;;8.45;100.00;99575.44;4999084;28;20212;-71
2022/02/14 04:18:02;;;;;;;4.73;2.83;;;;;;;9.08;100.00;99668.94;4999421;28;21125;-71
2022/02/14 04:20:27;;;;;;;5.40;2.33;;;;;;;8.48;100.00;99566.97;4978035;28;20220;-71
2022/02/14 04:22:52;;;;;;;5.67;2.67;;;;;;;8.42;100.00;99555.31;4999715;28;20190;-71
2022/02/14 04:25:18;;;;;;;4.57;2.37;;;;;;;9.15;100.00;99653.69;4994300;28;20637;-71
2022/02/14 04:27:44;;;;;;;5.53;2.63;;;;;;;9.12;100.00;99648.75;4998981;28;20620;-71
2022/02/14 04:30:12;;;;;;;4.40;2.40;;;;;;;9.01;100.00;99622.72;4983248;28;20560;-70
2022/02/14 04:32:38;;;;;;;3.33;2.33;;;;;;;8.98;100.00;99629.31;5002133;28;20478;-69
2022/02/14 04:35:04;;;;;;;6.70;2.50;;;;;;;9.13;100.00;99646.91;4998547;28;20501;-70
2022/02/14 04:37:30;;;;;;;4.83;2.77;;;;;;;8.93;100.00;99620.31;4996434;28;20467;-71
2022/02/14 04:39:56;;;;;;;5.83;3.13;;;;;;;9.15;100.00;99634.94;4996521;28;20470;-70
2022/02/14 04:42:21;;;;;;;7.70;2.73;;;;;;;8.74;100.00;99584.69;4998247;28;20439;-70
2022/02/14 04:44:47;;;;;;;6.43;3.10;;;;;;;8.79;100.00;99601.72;4993955;28;20192;-70
2022/02/14 04:47:12;;;;;;;6.60;2.90;;;;;;;8.98;100.00;99610.59;4997538;28;20229;-71
2022/02/14 04:49:38;;;;;;;11.13;2.77;;;;;;;8.54;100.00;99550.09;4997694;28;20674;-72
2022/02/14 04:52:03;;;;;;;3.30;2.30;;;;;;;8.88;100.00;99588.06;4982150;28;20661;-70
2022/02/14 04:54:29;;;;;;;3.53;1.93;;;;;;;7.87;100.00;99437.50;4997115;28;20196;-72
2022/02/14 04:56:54;;;;;;;9.90;2.47;;;;;;;8.42;100.00;99511.72;4997720;28;20624;-70
2022/02/14 04:59:20;;;;;;;10.00;2.90;;;;;;;8.41;100.00;99523.44;4998273;28;20213;-71
2022/02/14 05:01:45;;;;;;;5.37;2.40;;;;;;;8.07;100.00;99453.38;4997971;28;20195;-71
2022/02/14 05:04:11;;;;;;;5.63;3.07;;;;;;;8.57;100.00;99539.78;4998234;28;20709;-71
2022/02/14 05:06:36;;;;;;;5.67;2.43;;;;;;;8.77;100.00;99579.72;4997770;28;20208;-70
2022/02/14 05:09:03;;;;;;;13.83;2.90;;;;;;;9.08;100.00;99620.81;4999705;28;20272;-70
2022/02/14 05:11:28;;;;;;;8.30;2.40;;;;;;;8.45;100.00;99516.66;5001888;28;20189;-70
2022/02/14 05:13:53;;;;;;;8.03;2.53;;;;;;;7.95;100.00;99468.44;5002928;28;20463;-71
2022/02/14 05:16:23;;;;;;;5.63;2.90;;;;;;;8.34;100.00;99523.47;4999762;28;20208;-71
2022/02/14 05:18:48;;;;;;;11.90;2.67;;;;;;;8.10;100.00;99479.63;4999710;28;20177;-70
2022/02/14 05:21:14;;;;;;;4.47;2.20;;;;;;;8.45;100.00;99554.06;5001938;28;20539;-70
2022/02/14 05:23:39;;;;;;;5.30;2.20;;;;;;;8.43;100.00;99561.47;4983260;28;20207;-70
2022/02/14 05:26:05;;;;;;;5.30;2.10;;;;;;;8.16;100.00;99518.88;4999935;28;20212;-70
2022/02/14 05:28:30;;;;;;;6.23;2.73;;;;;;;7.84;100.00;99486.81;5001661;28;20693;-71
2022/02/14 05:30:56;;;;;;;6.73;3.00;;;;;;;7.88;100.00;99493.34;5002091;28;20184;-71
2022/02/14 05:33:21;;;;;;;7.03;2.97;;;;;;;8.49;100.00;99595.34;4980665;28;20197;-71
2022/02/14 05:35:46;;;;;;;6.67;2.63;;;;;;;8.01;100.00;99535.16;5000254;28;20201;-70
2022/02/14 05:38:12;;;;;;;6.20;2.70;;;;;;;8.49;100.00;99612.19;4994894;28;20185;-70
2022/02/14 05:40:37;;;;;;;4.93;2.57;;;;;;;7.51;100.00;99432.78;5000667;28;20185;-70
2022/02/14 05:43:03;;;;;;;3.53;2.47;;;;;;;7.88;100.00;99492.53;5001021;28;20196;-72
2022/02/14 05:45:28;;;;;;;6.63;2.77;;;;;;;8.30;100.00;99576.50;4997498;28;20231;-71
2022/02/14 05:47:53;;;;;;;8.40;2.83;;;;;;;8.37;100.00;99585.28;4998969;28;20267;-70
2022/02/14 05:50:19;;;;;;;6.73;2.13;;;;;;;8.56;100.00;99612.97;4994111;28;20199;-70
2022/02/14 05:52:45;;;;;;;5.30;2.77;;;;;;;8.02;100.00;99511.97;4979380;28;20197;-70
2022/02/14 05:55:11;;;;;;;7.40;2.30;;;;;;;7.89;100.00;99478.13;4976263;28;20221;-72
2022/02/14 05:57:36;;;;;;;5.87;2.40;;;;;;;7.42;100.00;99422.34;4996168;28;20184;-69
2022/02/14 06:00:05;;;;;;;6.73;2.23;;;;;;;7.72;100.00;99455.63;4996182;28;20610;-69
2022/02/14 06:02:30;;;;;;;6.63;2.30;;;;;;;8.21;100.00;99542.25;4995149;28;20967;-70
2022/02/14 06:04:56;;;;;;;4.83;2.60;;;;;;;8.19;100.00;99539.81;4998903;28;20463;-69
2022/02/14 06:07:21;;;;;;;9.27;2.97;;;;;;;8.50;100.00;99602.31;5001576;28;20185;-70
2022/02/14 06:09:47;;;;;;;7.20;2.13;;;;;;;7.15;100.00;99394.16;4997330;28;20189;-71
2022/02/14 06:12:12;;;;;;;9.43;2.57;;;;;;;7.81;100.00;99503.25;4991958;28;20802;-71
2022/02/14 06:14:37;;;;;;;4.97;2.30;;;;;;;8.23;100.00;99578.38;4996912;28;20230;-70
2022/02/14 06:17:03;;;;;;;5.23;2.50;;;;;;;7.32;100.00;99455.81;4999175;28;20180;-70
2022/02/14 06:19:29;;;;;;;8.30;2.70;;;;;;;8.46;100.00;99622.50;4999451;28;20189;-70
2022/02/14 06:21:54;;;;;;;7.90;2.17;;;;;;;7.96;100.00;99515.50;4996158;28;20447;-69
2022/02/14 06:24:21;;;;;;;5.47;2.60;;;;;;;8.57;100.00;99614.59;4994306;28;21175;-70
2022/02/14 06:26:46;;;;;;;4.57;2.63;;;;;;;8.58;100.00;99610.88;4998803;28;20212;-70
2022/02/14 06:29:12;;;;;;;5.17;2.30;;;;;;;8.20;100.00;99551.28;4995297;28;21431;-71
2022/02/14 06:31:37;;;;;;;3.60;1.93;;;;;;;8.19;100.00;99541.63;4986703;28;20331;-73
2022/02/14 06:34:03;;;;;;;5.83;2.23;;;;;;;8.69;100.00;99620.06;4987993;28;21719;-70
2022/02/14 06:36:29;;;;;;;3.30;2.27;;;;;;;8.57;100.00;99592.41;4982222;28;20217;-71
2022/02/14 06:38:55;;;;;;;2.83;1.90;;;;;;;8.58;100.00;99589.50;4995736;28;20431;-70
2022/02/14 06:41:21;;;;;;;8.13;2.20;;;;;;;8.74;100.00;99614.09;4975258;28;20196;-71
2022/02/14 06:43:47;;;;;;;4.20;1.90;;;;;;;8.56;100.00;99580.06;4971607;28;20559;-70
2022/02/14 06:46:13;;;;;;;5.87;2.53;;;;;;;8.79;100.00;99619.59;4987460;28;20914;-69
2022/02/14 06:48:39;;;;;;;8.53;2.40;;;;;;;8.72;100.00;99614.28;4993777;28;20628;-70
2022/02/14 06:51:04;;;;;;;9.63;2.50;;;;;;;8.77;100.00;99614.47;4995420;28;20489;-70
2022/02/14 06:53:30;;;;;;;6.40;1.80;;;;;;;8.70;100.00;99586.94;4997106;28;20760;-70
2022/02/14 06:55:55;;;;;;;4.53;2.17;;;;;;;8.72;100.00;99597.44;4990442;28;20220;-70
2022/02/14 06:58:21;;;;;;;5.27;2.50;;;;;;;8.54;100.00;99558.09;4971480;28;20645;-70
2022/02/14 07:00:47;;;;;;;3.80;2.43;;;;;;;8.80;100.00;99592.66;4986163;28;20197;-70
2022/02/14 07:03:13;;;;;;;3.67;2.43;;;;;;;8.38;100.00;99520.16;4991013;28;20467;-70
2022/02/14 07:05:40;;;;;;;7.50;3.00;;;;;;;8.93;100.00;99614.97;4987959;28;20215;-71
2022/02/14 07:08:07;;;;;;;5.83;2.50;;;;;;;9.00;100.00;99613.88;4989705;28;20841;-70
2022/02/14 07:10:32;;;;;;;6.57;2.10;;;;;;;8.65;100.00;99562.75;4987632;28;21484;-70
2022/02/14 07:12:58;;;;;;;2.80;1.93;;;;;;;8.62;100.00;99546.31;4989762;28;20478;-71
2022/02/14 07:15:23;;;;;;;3.63;2.63;;;;;;;8.56;100.00;99543.47;4992120;28;20215;-71
2022/02/14 07:17:49;;;;;;;3.30;1.73;;;;;;;9.02;100.00;99610.97;4994374;28;20181;-71
2022/02/14 07:20:16;;;;;;;3.20;2.20;;;;;;;8.96;100.00;99585.09;4996841;28;20225;-72
2022/02/14 07:22:42;;;;;;;7.57;2.63;;;;;;;8.20;100.00;99471.16;4977815;28;21115;-71
2022/02/14 07:25:09;;;;;;;3.90;2.40;;;;;;;8.91;100.00;99580.44;4991097;28;20464;-71
2022/02/14 07:27:36;;;;;;;3.33;1.60;;;;;;;8.36;100.00;99486.63;4993165;28;20468;-71
2022/02/14 07:30:07;;;;;;;3.13;1.50;;;;;;;8.72;100.00;99536.78;4989698;28;21032;-72
2022/02/14 07:32:32;;;;;;;3.33;2.00;;;;;;;9.02;100.00;99584.22;4996569;28;20526;-72
2022/02/14 07:34:58;;;;;;;4.23;2.37;;;;;;;9.20;100.00;99586.97;4971068;28;21841;-71
2022/02/14 07:37:24;;;;;;;5.30;1.90;;;;;;;8.77;100.00;99520.91;4996446;28;20585;-71
2022/02/14 07:39:50;;;;;;;4.47;2.30;;;;;;;8.50;100.00;99463.34;4981040;28;20627;-71
2022/02/14 07:42:15;;;;;;;5.33;1.90;;;;;;;8.07;100.00;99421.31;4998164;28;20436;-70
2022/02/14 07:44:41;;;;;;;3.90;2.10;;;;;;;9.43;100.00;99621.13;4977391;28;20208;-70
2022/02/14 07:47:09;;;;;;;2.53;1.73;;;;;;;8.70;100.00;99496.06;4976274;28;20275;-71
2022/02/14 07:49:35;;;;;;;16.23;1.87;;;;;;;9.04;100.00;99539.38;4993809;28;20262;-71
2022/02/14 07:52:01;;;;;;;13.87;2.50;;;;;;;9.23;100.00;99562.44;4992567;28;20447;-71
2022/02/14 07:54:26;;;;;;;4.33;2.13;;;;;;;9.54;100.00;99611.53;4992075;28;21689;-71
2022/02/14 07:56:51;;;;;;;6.83;2.50;;;;;;;9.48;100.00;99585.66;4992541;23;20648;-71
2022/02/14 07:59:17;;;;;;;6.27;2.03;;;;;;;9.46;100.00;99571.69;4992235;28;20215;-71
2022/02/14 08:01:42;;;;;;;4.60;2.00;;;;;;;9.57;100.00;99603.03;4996342;28;20231;-72
2022/02/14 08:04:08;;;;;;;5.90;1.93;;;;;;;9.38;100.00;99569.28;4997557;28;20313;-71
2022/02/14 08:06:37;;;;;;;4.90;2.30;;;;;;;8.99;100.00;99493.72;4996913;28;20576;-71
2022/02/14 08:09:10;;;;;;;4.70;1.80;;;;;;;9.26;100.00;99534.44;4990815;28;20212;-71
2022/02/14 08:11:36;;;;;;;9.83;2.50;;;;;;;9.63;100.00;99594.16;4981450;28;20439;-71
2022/02/14 08:14:01;;;;;;;9.00;2.00;;;;;;;9.40;100.00;99564.53;4983257;28;20531;-71
2022/02/14 08:16:27;;;;;;;6.50;2.43;;;;;;;9.12;100.00;99525.72;4984713;28;20306;-71
2022/02/14 08:18:53;;;;;;;3.73;2.40;;;;;;;9.60;100.00;99583.03;4988848;28;20211;-72
2022/02/14 08:21:19;;;;;;;10.10;2.93;;;;;;;9.72;100.00;99616.09;4986423;28;20240;-70
2022/02/14 08:23:45;;;;;;;17.27;3.33;;;;;;;9.65;100.00;99605.44;4982601;28;20456;-70
2022/02/14 08:26:10;;;;;;;6.77;2.70;;;;;;;9.12;100.00;99504.31;4994881;28;20460;-72
2022/02/14 08:28:38;;;;;;;4.30;1.97;;;;;;;9.74;100.00;99598.72;4993258;28;20512;-70
2022/02/14 08:31:05;;;;;;;4.90;2.83;;;;;;;9.75;100.00;99604.94;4993019;28;20200;-70
2022/02/14 08:33:31;;;;;;;6.10;2.10;;;;;;;8.82;100.00;99448.03;4991377;28;20447;-71
2022/02/14 08:35:56;;;;;;;5.70;2.33;;;;;;;9.22;100.00;99515.31;4989097;28;20545;-71
2022/02/14 08:38:22;;;;;;;5.73;2.50;;;;;;;9.72;100.00;99602.69;4993698;28;20808;-71
2022/02/14 08:40:47;;;;;;;6.00;2.67;;;;;;;9.79;100.00;99583.88;4993144;28;20185;-72
2022/02/14 08:43:13;;;;;;;3.20;2.33;;;;;;;9.04;100.00;99454.59;4986722;28;20271;-71
2022/02/14 08:45:38;;;;;;;5.93;1.93;;;;;;;9.87;100.00;99596.97;4993717;28;20212;-71
2022/02/14 08:48:04;;;;;;;3.93;1.90;;;;;;;9.57;100.00;99570.91;4989407;28;20200;-72
2022/02/14 08:50:30;;;;;;;3.47;1.80;;;;;;;9.91;100.00;99608.84;4991604;28;20204;-71
2022/02/14 08:52:56;;;;;;;3.30;2.10;;;;;;;9.58;100.00;99579.78;4994237;28;20199;-72
2022/02/14 08:55:22;;;;;;;9.17;2.30;;;;;;;9.86;100.00;99608.69;4998959;28;20309;-70
2022/02/14 08:57:48;;;;;;;5.33;2.10;;;;;;;9.34;100.00;99522.59;4988985;28;21133;-71
2022/02/14 09:00:15;;;;;;;2.03;1.77;;;;;;;9.84;100.00;99600.09;4986752;28;20243;-73
2022/02/14 09:02:40;;;;;;;2.47;1.70;;;;;;;9.83;100.00;99618.00;4998232;23;20236;-70
2022/02/14 09:05:06;;;;;;;4.97;2.10;;;;;;;9.62;100.00;99581.78;4987823;28;20967;-70
2022/02/14 09:07:32;;;;;;;3.10;1.80;;;;;;;9.15;100.00;99517.25;4983384;28;21665;-69
2022/02/14 09:09:57;;;;;;;5.30;2.10;;;;;;;9.78;100.00;99606.31;4989044;28;20447;-69
2022/02/14 09:12:24;;;;;;;5.73;2.03;;;;;;;9.68;100.00;99618.38;4990603;28;20220;-69
2022/02/14 09:14:50;;;;;;;4.10;1.70;;;;;;;9.78;100.00;99628.59;4990700;28;20189;-69
2022/02/14 09:17:16;;;;;;;3.80;2.30;;;;;;;9.69;100.00;99598.59;4990407;28;20952;-70
2022/02/14 09:19:42;;;;;;;3.37;2.33;;;;;;;9.40;100.00;99548.47;4991557;28;20949;-69
2022/02/14 09:22:09;;;;;;;5.60;2.10;;;;;;;9.36;100.00;99544.59;4990584;28;20460;-70
2022/02/14 09:24:35;;;;;;;4.80;2.00;;;;;;;9.76;100.00;99617.28;4987152;28;20432;-70
2022/02/14 09:27:02;;;;;;;6.90;1.70;;;;;;;9.74;100.00;99644.25;4995697;28;20444;-69
2022/02/14 09:29:27;;;;;;;3.90;2.17;;;;;;;9.72;100.00;99622.25;4992662;28;21006;-70
2022/02/14 09:31:53;;;;;;;3.47;2.13;;;;;;;9.78;100.00;99636.63;4992266;28;20463;-69
2022/02/14 09:34:19;;;;;;;1.57;1.23;;;;;;;9.75;100.00;99629.03;4987892;28;22588;-69
2022/02/14 09:36:46;;;;;;;2.67;1.70;;;;;;;9.69;100.00;99637.94;4990741;28;20511;-68
2022/02/14 09:39:12;;;;;;;2.80;1.60;;;;;;;9.72;100.00;99654.38;4993543;28;20925;-69
2022/02/14 09:41:38;;;;;;;5.17;2.50;;;;;;;9.56;100.00;99625.50;4995589;28;20481;-71
2022/02/14 09:44:05;;;;;;;2.57;1.80;;;;;;;9.69;100.00;99662.88;4988818;28;21555;-69
2022/02/14 09:46:32;;;;;;;9.57;2.33;;;;;;;9.65;100.00;99647.47;4990209;28;20793;-70
2022/02/14 09:49:02;;;;;;;5.97;1.93;;;;;;;9.73;100.00;99661.38;4988246;28;20839;-69
2022/02/14 09:51:30;;;;;;;4.30;1.57;;;;;;;9.70;100.00;99663.69;4990238;28;20894;-68
2022/02/14 09:53:57;;;;;;;5.67;2.13;;;;;;;9.55;100.00;99680.09;4987565;28;20447;-69
2022/02/14 09:56:23;;;;;;;4.60;1.90;;;;;;;9.56;100.00;99679.06;4991265;28;20488;-69
2022/02/14 09:58:50;;;;;;;5.80;2.03;;;;;;;9.67;100.00;99704.28;4980274;28;20569;-71
2022/02/14 10:01:16;;;;;;;3.40;2.20;;;;;;;9.19;100.00;99662.91;4992481;28;20451;-70
2022/02/14 10:04:00;;;;;;;4.90;2.40;;;;;;;9.23;100.00;99735.53;4987050;28;20475;-71
2022/02/14 10:06:30;;;;;;;4.80;2.60;;;;;;;8.99;100.00;99723.75;4989438;28;20436;-69
2022/02/14 10:09:15;;;;;;;5.67;3.33;;;;;;;8.63;100.00;99697.66;4988626;28;20475;-70
2022/02/14 10:12:02;;;;;;;4.40;3.07;;;;;;;8.79;100.00;99754.13;4988148;28;20471;-70
2022/02/14 10:14:28;;;;;;;3.43;2.13;;;;;;;8.74;100.00;99761.94;4988215;28;20436;-69
2022/02/14 10:17:07;;;;;;;4.47;2.00;;;;;;;8.58;100.00;99763.25;4988167;28;20974;-70
2022/02/14 10:19:45;;;;;;;3.00;1.73;;;;;;;8.45;100.00;99773.19;4987287;28;20431;-68
2022/02/14 10:22:10;;;;;;;2.83;1.80;;;;;;;8.48;100.00;99773.56;4995076;28;20462;-70
2022/02/14 10:24:43;;;;;;;2.27;1.57;;;;;;;8.36;100.00;99784.06;4989192;28;22939;-69
2022/02/14 10:27:11;;;;;;;1.60;1.50;;;;;;;8.07;100.00;99723.94;4992766;28;20192;-71
2022/02/14 10:29:38;;;;;;;2.33;1.90;;;;;;;8.47;100.00;99776.44;4988305;28;20503;-70
2022/02/14 10:32:20;;;;;;;2.00;1.23;;;;;;;8.44;100.00;99795.56;4991009;28;20495;-70
2022/02/14 10:34:52;;;;;;;2.20;1.30;;;;;;;8.54;100.00;99793.28;4987083;28;20450;-69
2022/02/14 10:37:18;;;;;;;1.93;1.03;;;;;;;8.57;100.00;99776.84;4992014;28;20436;-70
2022/02/14 10:39:46;;;;;;;1.87;1.30;;;;;;;8.52;100.00;99800.69;4989349;28;20924;-70
2022/02/14 10:42:19;;;;;;;1.90;1.30;;;;;;;7.89;100.00;99681.84;4984218;28;20467;-69
2022/02/14 10:47:37;;;;;;;2.83;1.63;;;;;;;8.69;100.00;99815.22;4988248;28;20960;-70
2022/02/14 10:50:09;;;;;;;3.03;1.70;;;;;;;8.61;100.00;99802.09;4992594;28;20453;-70
2022/02/14 10:52:46;;;;;;;1.90;1.80;;;;;;;8.55;100.00;99786.91;4990507;28;20464;-69
2022/02/14 10:55:26;;;;;;;2.43;1.70;;;;;;;8.60;100.00;99803.94;4986968;28;20475;-69
2022/02/14 10:57:53;;;;;;;2.50;2.20;;;;;;;8.55;100.00;99800.28;4989951;28;20427;-69
2022/02/14 11:00:36;;;;;;;1.97;1.60;;;;;;;8.47;100.00;99771.09;4988184;28;20534;-70
2022/02/14 11:03:06;;;;;;;3.47;2.07;;;;;;;8.50;100.00;99758.13;4986959;28;20952;-68
2022/02/14 11:05:33;;;;;;;3.93;2.53;;;;;;;9.19;100.00;99819.94;4989149;28;20456;-69
2022/02/14 11:08:01;;;;;;;5.13;1.70;;;;;;;8.98;100.00;99770.25;4993116;28;20638;-70
2022/02/14 11:10:27;;;;;;;2.53;1.60;;;;;;;9.14;100.00;99788.50;4991787;28;20448;-69
2022/02/14 11:12:55;;;;;;;2.33;1.57;;;;;;;9.53;100.00;99820.56;4992405;28;20590;-70
2022/02/14 11:15:26;;;;;;;2.83;1.80;;;;;;;9.44;100.00;99822.66;4990455;28;20436;-70
2022/02/14 11:18:03;;;;;;;4.60;1.67;;;;;;;9.59;100.00;99820.50;4991261;28;21137;-69
2022/02/14 11:20:28;;;;;;;3.67;1.63;;;;;;;9.43;100.00;99821.00;4988663;28;20439;-69
2022/02/14 11:22:56;;;;;;;1.93;1.63;;;;;;;8.99;100.00;99782.59;4993638;28;20871;-70
2022/02/14 11:25:39;;;;;;;2.00;1.40;;;;;;;9.33;100.00;99834.06;4983913;28;20189;-70
2022/02/14 11:28:26;;;;;;;2.13;1.33;;;;;;;9.22;100.00;99825.66;4990251;28;21449;-69
2022/02/14 11:31:12;;;;;;;3.50;1.30;;;;;;;9.07;100.00;99816.31;4991589;28;20860;-69
2022/02/14 11:33:58;;;;;;;2.53;1.20;;;;;;;9.02;100.00;99804.38;4994903;28;20940;-70
2022/02/14 11:36:25;;;;;;;3.90;1.70;;;;;;;8.70;100.00;99773.28;4998209;28;20436;-69
2022/02/14 11:38:58;;;;;;;3.20;1.60;;;;;;;9.28;100.00;99827.47;4994040;28;20950;-69